Time;durP1;ratioP1;P1;durP2;ratioP2;P2;SDS_P1;SDS_P2;PMS_P1;PMS_P2;Temp;Humidity;BMP_temperature;BMP_pressure;BME280_temperature;BME280_humidity;BME280_pressure;Samples;Min_cycle;Max_cycle;Signal;HPM_P1;HPM_P2
2023/09/08 00:00:15;;;;;;;55.83;30.50;;;;;;;19.16;87.79;100940.09;4978725;28;20123;-45
2023/09/08 00:02:41;;;;;;;57.63;34.92;;;;;;;19.14;88.08;100939.72;4977673;28;20054;-46
2023/09/08 00:05:08;;;;;;;55.80;30.30;;;;;;;19.10;88.19;100938.88;4977620;28;20392;-45
2023/09/08 00:07:36;;;;;;;50.33;28.77;;;;;;;19.10;88.38;100936.06;4978456;28;20047;-44
2023/09/08 00:10:04;;;;;;;55.53;34.10;;;;;;;19.08;88.46;100936.50;4978700;28;20050;-45
2023/09/08 00:12:30;;;;;;;51.78;32.53;;;;;;;19.05;88.22;100940.09;4975878;28;20046;-51
2023/09/08 00:14:57;;;;;;;52.28;32.45;;;;;;;19.02;88.76;100937.25;4977599;28;20505;-46
2023/09/08 00:17:24;;;;;;;57.28;33.88;;;;;;;19.01;88.67;100933.66;4976875;28;20039;-44
2023/09/08 00:19:51;;;;;;;52.58;30.60;;;;;;;18.99;88.76;100933.25;4978141;28;20152;-45
2023/09/08 00:22:18;;;;;;;48.75;29.08;;;;;;;19.00;88.76;100934.06;4978183;28;20097;-46
2023/09/08 00:24:45;;;;;;;53.53;29.50;;;;;;;19.00;88.71;100932.06;4977391;28;20493;-46
2023/09/08 00:27:12;;;;;;;45.45;30.42;;;;;;;18.98;88.75;100925.25;4978294;28;20039;-46
2023/09/08 00:29:38;;;;;;;46.15;28.65;;;;;;;18.98;89.11;100925.25;4978147;28;20123;-47
2023/09/08 00:32:05;;;;;;;42.60;27.38;;;;;;;18.96;89.41;100927.63;4978176;28;20497;-44
2023/09/08 00:34:32;;;;;;;43.78;26.63;;;;;;;18.96;89.11;100927.63;4977244;28;20051;-46
2023/09/08 00:37:04;;;;;;;40.67;26.10;;;;;;;18.95;89.16;100931.66;4978173;28;20070;-45
2023/09/08 00:39:31;;;;;;;53.28;28.98;;;;;;;18.93;89.39;100928.44;4978163;28;20105;-45
2023/09/08 00:41:58;;;;;;;52.03;28.77;;;;;;;18.92;89.29;100921.22;4978140;28;20477;-45
2023/09/08 00:44:25;;;;;;;44.35;28.00;;;;;;;18.92;89.35;100929.63;4975087;28;20054;-44
2023/09/08 00:46:51;;;;;;;51.65;28.73;;;;;;;18.90;89.14;100937.66;4973052;28;20599;-45
2023/09/08 00:49:20;;;;;;;41.60;26.38;;;;;;;18.87;89.76;100927.22;4974910;28;20050;-44
2023/09/08 00:51:47;;;;;;;45.80;28.10;;;;;;;18.85;89.58;100920.00;4974753;28;20055;-50
2023/09/08 00:54:15;;;;;;;48.35;27.77;;;;;;;18.85;89.82;100922.00;4973107;28;20058;-46
2023/09/08 00:56:42;;;;;;;42.10;27.65;;;;;;;18.85;89.96;100917.19;4967444;28;20051;-45
2023/09/08 00:59:09;;;;;;;51.40;27.95;;;;;;;18.85;89.57;100922.78;4974681;28;20468;-45
2023/09/08 01:01:36;;;;;;;46.22;27.70;;;;;;;18.85;89.56;100914.38;4978270;28;20109;-45
2023/09/08 01:04:03;;;;;;;42.90;26.77;;;;;;;18.85;89.64;100922.78;4973858;28;20055;-45
2023/09/08 01:06:32;;;;;;;44.08;29.10;;;;;;;18.85;89.80;100925.59;4974539;28;20059;-47
2023/09/08 01:08:59;;;;;;;45.78;27.35;;;;;;;18.87;89.67;100927.22;4974354;28;20109;-44
2023/09/08 01:11:27;;;;;;;42.47;27.10;;;;;;;18.84;89.92;100920.41;4974722;28;20046;-46
2023/09/08 01:13:55;;;;;;;50.67;30.25;;;;;;;18.83;89.77;100925.19;4974118;28;20058;-45
2023/09/08 01:16:22;;;;;;;46.17;27.98;;;;;;;18.83;89.78;100918.78;4973073;28;20552;-45
2023/09/08 01:18:49;;;;;;;47.20;29.73;;;;;;;18.83;89.89;100924.41;4969537;28;20137;-44
2023/09/08 01:21:49;;;;;;;63.00;34.75;;;;;;;18.81;90.11;100922.00;4974212;28;20046;-46
2023/09/08 01:24:34;;;;;;;52.70;31.48;;;;;;;18.78;89.96;100922.78;4970100;28;20489;-45
2023/09/08 01:27:01;;;;;;;53.45;33.45;;;;;;;18.75;89.74;100915.16;4973246;28;20050;-45
2023/09/08 01:29:30;;;;;;;61.22;36.85;;;;;;;18.72;90.06;100913.16;4974364;28;20070;-45
2023/09/08 01:31:57;;;;;;;48.40;30.85;;;;;;;18.68;90.27;100914.34;4974100;28;20039;-44
2023/09/08 01:34:24;;;;;;;49.03;29.13;;;;;;;18.62;90.43;100913.91;4974567;28;20069;-46
2023/09/08 01:36:51;;;;;;;45.55;26.80;;;;;;;18.60;90.64;100915.50;4975620;28;20508;-46
2023/09/08 01:39:18;;;;;;;48.28;27.92;;;;;;;18.59;90.72;100909.09;4977967;28;20049;-45
2023/09/08 01:41:45;;;;;;;45.88;29.98;;;;;;;18.59;90.54;100909.09;4973910;28;20089;-45
2023/09/08 01:44:12;;;;;;;48.60;30.48;;;;;;;18.57;90.70;100900.28;4974070;28;20066;-45
2023/09/08 01:46:40;;;;;;;50.83;32.03;;;;;;;18.56;90.56;100898.66;4955804;28;20117;-46
2023/09/08 01:49:07;;;;;;;48.00;31.50;;;;;;;18.55;90.56;100894.28;4973705;28;20067;-45
2023/09/08 01:51:35;;;;;;;46.50;27.58;;;;;;;18.52;90.88;100891.44;4973091;28;20047;-45
2023/09/08 01:54:02;;;;;;;50.70;29.80;;;;;;;18.50;90.97;100908.69;4973435;28;20655;-45
2023/09/08 01:56:28;;;;;;;46.42;30.20;;;;;;;18.50;90.83;100905.06;4972694;28;20049;-46
2023/09/08 01:58:55;;;;;;;47.42;28.38;;;;;;;18.49;90.73;100900.66;4973617;28;20039;-45
2023/09/08 02:01:22;;;;;;;44.35;29.85;;;;;;;18.47;90.87;100895.44;4973560;28;20046;-45
2023/09/08 02:03:49;;;;;;;54.72;31.30;;;;;;;18.47;90.63;100901.06;4973618;28;20113;-45
2023/09/08 02:06:16;;;;;;;50.50;28.75;;;;;;;18.45;90.80;100900.63;4972965;28;20062;-44
2023/09/08 02:08:43;;;;;;;54.22;32.55;;;;;;;18.44;90.61;100899.00;4974833;28;20047;-46
2023/09/08 02:11:10;;;;;;;54.13;32.17;;;;;;;18.39;90.91;100893.78;4973827;28;20046;-49
2023/09/08 02:13:36;;;;;;;45.30;31.02;;;;;;;18.36;91.13;100888.16;4973190;28;20105;-45
2023/09/08 02:16:03;;;;;;;59.42;35.33;;;;;;;18.36;91.40;100888.16;4972598;28;20049;-45
2023/09/08 02:18:30;;;;;;;48.42;30.23;;;;;;;18.35;91.42;100890.16;4973511;28;20069;-47
2023/09/08 02:20:57;;;;;;;47.63;29.02;;;;;;;18.35;91.40;100881.75;4973038;28;20053;-45
2023/09/08 02:23:24;;;;;;;54.25;31.27;;;;;;;18.36;91.40;100886.16;4972441;28;20077;-45
2023/09/08 02:25:52;;;;;;;46.30;30.58;;;;;;;18.35;91.31;100884.53;4972962;28;20063;-45
2023/09/08 02:28:19;;;;;;;52.00;28.08;;;;;;;18.34;91.37;100888.56;4973315;28;20050;-45
2023/09/08 02:30:48;;;;;;;49.30;29.52;;;;;;;18.35;91.35;100898.56;4973609;28;20129;-45
2023/09/08 02:33:15;;;;;;;47.55;28.60;;;;;;;18.35;91.35;100898.56;4973007;28;20101;-45
2023/09/08 02:35:43;;;;;;;47.63;29.73;;;;;;;18.34;91.43;100902.56;4972397;28;20051;-46
2023/09/08 02:38:10;;;;;;;39.53;27.23;;;;;;;18.34;91.31;100910.97;4973014;28;20081;-46
2023/09/08 02:40:37;;;;;;;50.00;28.33;;;;;;;18.33;91.35;100916.97;4973143;28;20390;-45
2023/09/08 02:43:04;;;;;;;44.78;28.08;;;;;;;18.31;91.27;100911.78;4973191;28;20106;-46
2023/09/08 02:45:31;;;;;;;47.28;31.17;;;;;;;18.29;91.71;100908.56;4972088;28;20086;-44
2023/09/08 02:48:01;;;;;;;52.20;30.02;;;;;;;18.27;91.31;100908.13;4972840;28;20051;-45
2023/09/08 02:50:28;;;;;;;56.45;32.35;;;;;;;18.27;91.67;100912.97;4973140;28;20046;-45
2023/09/08 02:52:56;;;;;;;48.78;31.38;;;;;;;18.24;91.98;100914.53;4972706;28;20102;-45
2023/09/08 02:55:23;;;;;;;44.25;29.40;;;;;;;18.23;92.00;100907.31;4962427;28;20043;-45
2023/09/08 02:57:50;;;;;;;38.28;24.40;;;;;;;18.21;91.84;100909.72;4971565;28;20047;-45
2023/09/08 03:02:52;;;;;;;45.53;28.38;;;;;;;18.18;91.98;100904.91;4937377;23;20058;-46
2023/09/08 03:05:19;;;;;;;43.42;27.83;;;;;;;18.16;92.06;100910.88;5015139;28;20554;-46
2023/09/08 03:07:49;;;;;;;42.58;27.80;;;;;;;18.18;92.07;100913.31;5009421;28;20041;-46
2023/09/08 03:10:16;;;;;;;47.38;28.63;;;;;;;18.16;92.07;100905.28;5010852;28;20058;-46
2023/09/08 03:12:43;;;;;;;39.47;27.98;;;;;;;18.16;91.88;100896.88;5007328;28;20050;-46
2023/09/08 03:15:10;;;;;;;46.55;27.58;;;;;;;18.14;92.06;100892.84;5009305;28;20038;-48
2023/09/08 03:17:37;;;;;;;40.00;26.88;;;;;;;18.14;91.89;100882.44;5011473;28;20499;-47
2023/09/08 03:20:07;;;;;;;34.13;23.88;;;;;;;18.12;92.07;100882.06;5007563;28;20065;-49
2023/09/08 03:22:34;;;;;;;36.28;23.45;;;;;;;18.11;91.98;100888.84;5009646;28;20058;-47
2023/09/08 03:25:01;;;;;;;41.22;25.75;;;;;;;18.12;92.17;100881.25;5009728;28;20042;-48
2023/09/08 03:27:28;;;;;;;45.65;28.50;;;;;;;18.12;92.06;100878.44;5010015;28;20376;-46
2023/09/08 03:29:54;;;;;;;41.30;26.30;;;;;;;18.11;92.24;100872.03;5014258;28;20048;-46
2023/09/08 03:32:21;;;;;;;38.78;25.17;;;;;;;18.09;92.48;100879.22;5010969;28;20034;-47
2023/09/08 03:34:50;;;;;;;44.25;27.00;;;;;;;18.07;92.53;100876.00;5009741;28;20128;-46
2023/09/08 03:37:17;;;;;;;43.55;26.95;;;;;;;18.06;92.55;100877.19;5009863;28;20045;-47
2023/09/08 03:39:44;;;;;;;45.05;26.65;;;;;;;18.07;92.83;100876.81;5010368;28;20491;-46
2023/09/08 03:42:11;;;;;;;45.25;27.38;;;;;;;18.06;92.82;100878.00;5009075;28;20050;-46
2023/09/08 03:44:39;;;;;;;36.70;24.75;;;;;;;18.07;93.12;100878.81;5009099;28;20061;-46
2023/09/08 03:47:06;;;;;;;38.75;24.85;;;;;;;18.06;93.11;100874.41;5012137;28;20064;-46
2023/09/08 03:49:33;;;;;;;42.50;26.75;;;;;;;18.06;92.86;100880.81;5011062;28;20404;-46
2023/09/08 03:52:04;;;;;;;44.58;28.00;;;;;;;18.07;93.29;100871.22;5011066;28;20460;-50
2023/09/08 03:54:30;;;;;;;42.90;25.60;;;;;;;18.08;93.24;100872.81;5009683;28;20038;-47
2023/09/08 03:56:58;;;;;;;46.97;28.60;;;;;;;18.08;93.27;100878.41;5010372;28;20048;-47
2023/09/08 03:59:24;;;;;;;42.05;27.27;;;;;;;18.09;93.26;100888.44;5009939;28;20060;-47
2023/09/08 04:01:51;;;;;;;46.20;29.10;;;;;;;18.08;93.33;100878.41;5020331;28;20045;-46
2023/09/08 04:04:19;;;;;;;48.40;30.02;;;;;;;18.07;93.47;100885.22;5010587;28;20046;-46
2023/09/08 04:06:47;;;;;;;52.00;30.67;;;;;;;18.06;93.70;100883.63;5003625;28;20041;-49
2023/09/08 04:09:13;;;;;;;45.40;29.80;;;;;;;18.05;93.79;100878.41;5010696;28;20454;-46
2023/09/08 04:11:41;;;;;;;48.42;28.48;;;;;;;18.04;94.01;100871.19;5010295;28;20511;-46
2023/09/08 04:14:08;;;;;;;40.95;27.52;;;;;;;18.04;93.85;100885.19;4998162;28;20552;-46
2023/09/08 04:16:34;;;;;;;40.65;26.40;;;;;;;18.02;93.89;100876.41;5008566;28;20050;-46
2023/09/08 04:19:02;;;;;;;48.50;29.00;;;;;;;18.03;94.17;100883.63;5010912;28;20041;-46
2023/09/08 04:21:29;;;;;;;40.25;25.20;;;;;;;18.02;94.37;100882.81;5014357;28;20057;-47
2023/09/08 04:23:55;;;;;;;37.65;22.20;;;;;;;18.02;94.47;100879.19;5014581;28;20049;-46
2023/09/08 04:26:22;;;;;;;45.42;25.98;;;;;;;18.01;94.56;100886.78;5013515;28;20153;-46
2023/09/08 04:28:49;;;;;;;40.03;23.98;;;;;;;18.02;94.40;100884.78;5014322;28;20061;-49
2023/09/08 04:31:17;;;;;;;40.97;27.13;;;;;;;18.04;94.58;100888.00;5014527;28;20399;-46
2023/09/08 04:33:44;;;;;;;43.83;27.45;;;;;;;18.03;94.36;100887.19;5014273;28;20407;-46
2023/09/08 04:36:13;;;;;;;44.90;29.38;;;;;;;18.02;94.76;100888.41;5013039;28;20048;-46
2023/09/08 04:38:41;;;;;;;47.85;28.25;;;;;;;18.01;94.93;100880.38;5014304;28;20049;-47
2023/09/08 04:41:08;;;;;;;55.22;31.10;;;;;;;18.01;94.87;100883.19;5011348;28;20108;-46
2023/09/08 04:43:35;;;;;;;40.53;25.48;;;;;;;17.99;94.84;100874.38;5011963;28;20045;-45
2023/09/08 04:46:03;;;;;;;46.35;29.17;;;;;;;17.98;95.04;100878.34;5011727;28;20046;-46
2023/09/08 04:48:30;;;;;;;46.70;28.40;;;;;;;17.98;95.10;100883.97;5013020;28;20070;-45
2023/09/08 04:50:57;;;;;;;47.63;29.73;;;;;;;17.96;95.14;100875.16;5013290;28;20482;-45
2023/09/08 04:53:24;;;;;;;45.17;28.05;;;;;;;17.93;95.19;100879.53;5011747;28;20129;-46
2023/09/08 04:55:52;;;;;;;42.67;26.88;;;;;;;17.92;95.16;100879.94;5013026;28;20046;-46
2023/09/08 04:58:19;;;;;;;48.50;30.42;;;;;;;17.91;95.71;100881.13;5012530;28;20080;-46
2023/09/08 05:00:45;;;;;;;50.58;29.17;;;;;;;17.90;95.81;100879.50;5012745;28;20125;-46
2023/09/08 05:03:12;;;;;;;40.85;26.60;;;;;;;17.91;95.72;100883.94;5012403;28;20081;-46
2023/09/08 05:05:39;;;;;;;52.65;33.25;;;;;;;17.91;95.73;100881.13;5017041;28;20498;-47
2023/09/08 05:08:06;;;;;;;46.15;29.65;;;;;;;17.92;95.85;100869.56;5010758;28;20053;-47
2023/09/08 05:10:33;;;;;;;51.70;30.08;;;;;;;17.94;95.84;100869.16;5012953;28;20042;-47
2023/09/08 05:13:00;;;;;;;58.67;31.30;;;;;;;17.93;96.08;100870.31;5013451;28;20033;-46
2023/09/08 05:15:27;;;;;;;54.33;34.08;;;;;;;17.93;96.04;100870.31;5014327;28;20105;-50
2023/09/08 05:17:55;;;;;;;44.53;28.63;;;;;;;17.94;95.91;100877.53;5011445;28;20065;-47
2023/09/08 05:20:22;;;;;;;55.10;32.35;;;;;;;17.93;96.25;100873.94;5012511;28;20092;-45
2023/09/08 05:22:49;;;;;;;46.80;31.73;;;;;;;17.93;96.20;100876.75;5014647;28;20066;-46
2023/09/08 05:25:16;;;;;;;47.00;31.10;;;;;;;17.93;96.10;100875.94;5008898;28;20052;-46
2023/09/08 05:27:45;;;;;;;59.33;33.25;;;;;;;17.90;96.04;100860.72;5011029;28;20058;-47
2023/09/08 05:30:12;;;;;;;43.30;27.98;;;;;;;17.89;96.20;100880.72;5010086;28;20092;-46
2023/09/08 05:32:39;;;;;;;49.63;33.13;;;;;;;17.88;96.47;100876.31;5006850;28;20041;-46
2023/09/08 05:35:06;;;;;;;46.80;30.48;;;;;;;17.86;96.63;100878.69;5015390;28;20104;-47
2023/09/08 05:37:33;;;;;;;48.15;30.48;;;;;;;17.88;96.64;100888.31;5012241;28;20050;-46
2023/09/08 05:40:00;;;;;;;54.38;32.67;;;;;;;17.88;96.80;100887.50;5013320;28;20056;-46
2023/09/08 05:42:27;;;;;;;51.38;33.47;;;;;;;17.88;96.89;100887.50;5010932;28;20042;-47
2023/09/08 05:44:54;;;;;;;46.95;32.65;;;;;;;17.88;96.88;100893.09;5011104;28;20399;-48
2023/09/08 05:47:21;;;;;;;53.33;31.45;;;;;;;17.87;97.10;100883.91;5014034;28;20053;-46
2023/09/08 05:49:48;;;;;;;48.88;30.58;;;;;;;17.86;96.97;100887.09;5011439;28;20038;-47
2023/09/08 05:52:16;;;;;;;52.15;32.42;;;;;;;17.87;97.05;100888.72;5012640;28;20479;-50
2023/09/08 05:54:42;;;;;;;57.95;33.88;;;;;;;17.86;97.15;100884.31;5011875;28;20046;-48
2023/09/08 05:57:09;;;;;;;61.95;35.95;;;;;;;17.86;97.26;100885.13;5012279;28;20049;-47
2023/09/08 05:59:36;;;;;;;46.42;29.95;;;;;;;17.87;97.36;100877.53;4999971;28;20046;-47
2023/09/08 06:02:03;;;;;;;48.50;30.17;;;;;;;17.86;97.37;100871.09;5012563;28;20506;-46
2023/09/08 06:04:32;;;;;;;42.00;27.00;;;;;;;17.87;97.39;100880.31;5000119;28;20064;-46
2023/09/08 06:06:59;;;;;;;50.35;31.20;;;;;;;17.88;97.61;100885.53;5015016;28;20045;-51
2023/09/08 06:09:26;;;;;;;49.47;33.15;;;;;;;17.91;97.54;100881.13;5012539;28;20042;-46
2023/09/08 06:11:53;;;;;;;51.28;33.75;;;;;;;17.93;97.46;100882.34;5012381;28;20128;-46
2023/09/08 06:14:20;;;;;;;54.67;31.73;;;;;;;17.93;97.44;100881.53;5011729;28;20064;-47
2023/09/08 06:16:47;;;;;;;44.55;28.27;;;;;;;17.94;97.54;100885.94;5012345;28;20042;-47
2023/09/08 06:19:14;;;;;;;52.72;31.92;;;;;;;17.96;97.73;100886.34;5012620;28;20088;-46
2023/09/08 06:21:41;;;;;;;51.47;30.95;;;;;;;17.99;97.84;100891.19;5011345;28;20065;-46
2023/09/08 06:24:08;;;;;;;54.80;34.90;;;;;;;18.03;97.64;100897.63;5012266;28;20049;-46
2023/09/08 06:26:35;;;;;;;54.88;31.50;;;;;;;18.05;97.79;100903.63;5009792;28;20507;-46
2023/09/08 06:29:02;;;;;;;53.08;34.25;;;;;;;18.08;97.96;100906.44;5010289;28;20096;-46
2023/09/08 06:31:29;;;;;;;51.00;31.65;;;;;;;18.10;97.95;100915.28;5015206;28;20049;-46
2023/09/08 06:33:56;;;;;;;51.83;31.27;;;;;;;18.15;98.27;100919.69;5008205;28;20495;-47
2023/09/08 06:36:23;;;;;;;47.72;31.83;;;;;;;18.17;97.94;100911.69;5003351;28;20054;-49
2023/09/08 06:38:50;;;;;;;50.45;33.08;;;;;;;18.20;97.86;100922.13;5006438;28;20052;-46
2023/09/08 06:41:17;;;;;;;48.50;29.55;;;;;;;18.23;98.11;100912.94;5010732;28;20049;-46
2023/09/08 06:43:44;;;;;;;62.63;35.05;;;;;;;18.25;98.41;100907.72;5001167;28;20053;-47
2023/09/08 06:46:11;;;;;;;49.25;29.08;;;;;;;18.28;98.28;100909.75;5010407;28;20136;-47
2023/09/08 06:48:38;;;;;;;49.55;31.50;;;;;;;18.30;98.25;100915.75;5011736;28;20049;-47
2023/09/08 06:51:05;;;;;;;52.08;29.63;;;;;;;18.31;98.25;100920.19;5011671;28;20419;-47
2023/09/08 06:53:32;;;;;;;53.15;33.28;;;;;;;18.33;98.31;100916.97;5011276;28;20496;-47
2023/09/08 06:55:59;;;;;;;44.97;29.67;;;;;;;18.34;98.45;100922.19;5010129;28;20056;-46
2023/09/08 06:58:26;;;;;;;60.80;34.65;;;;;;;18.37;98.58;100929.81;5011397;28;20103;-46
2023/09/08 07:00:54;;;;;;;46.00;29.48;;;;;;;18.37;98.55;100935.44;5011516;28;20054;-47
2023/09/08 07:03:26;;;;;;;51.55;31.80;;;;;;;18.38;98.76;100928.59;5011530;28;20570;-47
2023/09/08 07:05:53;;;;;;;51.53;33.28;;;;;;;18.38;98.71;100931.41;5011146;28;20048;-47
2023/09/08 07:08:20;;;;;;;49.55;33.28;;;;;;;18.38;98.57;100934.22;5011554;28;20496;-46
2023/09/08 07:10:53;;;;;;;48.28;31.45;;;;;;;18.38;98.94;100937.03;5011595;28;20144;-47
2023/09/08 07:13:20;;;;;;;57.53;35.55;;;;;;;18.38;99.00;100933.41;5011875;28;20034;-46
2023/09/08 07:15:47;;;;;;;48.35;30.00;;;;;;;18.40;98.71;100928.22;5008605;28;20049;-47
2023/09/08 07:18:13;;;;;;;50.13;33.08;;;;;;;18.41;98.81;100939.03;5012199;28;20042;-47
2023/09/08 07:20:40;;;;;;;43.80;27.65;;;;;;;18.43;99.05;100947.03;5006969;28;20046;-46
2023/09/08 07:23:07;;;;;;;59.72;33.63;;;;;;;18.47;98.82;100940.31;5017483;28;20044;-46
2023/09/08 07:25:34;;;;;;;55.38;33.60;;;;;;;18.52;99.12;100937.13;5003256;28;20056;-46
2023/09/08 07:28:01;;;;;;;51.85;34.42;;;;;;;18.59;98.75;100941.94;5009784;28;20038;-47
2023/09/08 07:30:28;;;;;;;55.63;35.08;;;;;;;18.65;99.09;100938.38;5008658;28;20423;-49
2023/09/08 07:32:55;;;;;;;52.88;34.28;;;;;;;18.70;98.89;100937.97;5008626;28;20403;-46
2023/09/08 07:35:24;;;;;;;53.72;35.10;;;;;;;18.77;98.81;100937.22;5011301;28;20040;-46
2023/09/08 07:37:51;;;;;;;56.70;34.53;;;;;;;18.82;99.14;100939.63;5008253;28;20487;-45
2023/09/08 07:40:18;;;;;;;57.55;36.42;;;;;;;18.89;98.78;100939.66;5009110;28;20045;-49
2023/09/08 07:42:45;;;;;;;51.55;34.83;;;;;;;18.94;98.90;100941.25;5010247;28;20541;-46
2023/09/08 07:45:12;;;;;;;62.75;36.88;;;;;;;19.01;98.86;100941.28;5008574;28;20048;-46
2023/09/08 07:47:38;;;;;;;54.38;35.15;;;;;;;19.08;98.88;100936.50;5002055;28;20048;-47
2023/09/08 07:50:22;;;;;;;52.53;34.28;;;;;;;19.16;99.04;100948.53;5005546;28;20440;-46
2023/09/08 07:52:51;;;;;;;52.78;33.50;;;;;;;19.22;99.16;100944.13;5007677;28;20049;-46
2023/09/08 07:55:19;;;;;;;58.38;35.60;;;;;;;19.28;99.07;100945.31;5014253;28;20042;-46
2023/09/08 07:57:46;;;;;;;54.63;34.33;;;;;;;19.35;99.27;100945.34;5013561;28;20041;-48
2023/09/08 08:00:13;;;;;;;58.08;36.17;;;;;;;19.41;99.56;100927.72;5013676;28;20085;-46
2023/09/08 08:02:49;;;;;;;50.83;33.35;;;;;;;19.49;99.30;100938.94;5012720;28;20153;-47
2023/09/08 08:05:17;;;;;;;55.30;36.47;;;;;;;19.54;99.13;100930.91;5014546;28;20046;-46
2023/09/08 08:07:44;;;;;;;54.58;36.83;;;;;;;19.61;99.08;100941.38;5014677;28;20095;-46
2023/09/08 08:10:12;;;;;;;61.58;36.83;;;;;;;19.67;99.35;100940.53;5014653;28;20399;-48
2023/09/08 08:12:41;;;;;;;53.80;35.25;;;;;;;19.72;99.38;100942.97;5014074;28;20042;-46
2023/09/08 08:15:12;;;;;;;52.55;33.45;;;;;;;19.80;98.87;100940.97;5014375;28;20496;-47
2023/09/08 08:17:40;;;;;;;50.80;33.85;;;;;;;19.86;98.92;100942.94;5013034;28;20061;-46
2023/09/08 08:20:09;;;;;;;48.63;32.35;;;;;;;19.95;99.07;100936.91;5007034;28;20141;-46
2023/09/08 08:22:37;;;;;;;46.90;33.28;;;;;;;20.04;99.66;100938.09;5005701;28;20430;-49
2023/09/08 08:25:04;;;;;;;55.33;34.10;;;;;;;20.15;100.00;100940.88;5014019;28;20056;-47
2023/09/08 08:27:32;;;;;;;53.17;34.03;;;;;;;20.24;100.00;100946.13;5005573;28;20100;-48
2023/09/08 08:30:00;;;;;;;52.22;35.72;;;;;;;20.35;100.00;100938.44;5013628;28;20042;-44
2023/09/08 08:32:28;;;;;;;58.83;37.08;;;;;;;20.46;100.00;100942.03;5010174;28;20050;-47
2023/09/08 08:34:56;;;;;;;56.30;37.55;;;;;;;20.57;100.00;100942.81;5012006;28;20400;-46
2023/09/08 08:37:23;;;;;;;57.83;38.88;;;;;;;20.70;100.00;100940.31;5013545;28;20064;-46
2023/09/08 08:39:51;;;;;;;58.70;39.97;;;;;;;20.81;100.00;100941.84;5013197;28;20461;-47
2023/09/08 08:42:22;;;;;;;52.60;36.10;;;;;;;20.97;100.00;100947.78;5011536;28;20045;-46
2023/09/08 08:44:49;;;;;;;51.88;34.78;;;;;;;21.16;100.00;100958.56;5010302;28;20092;-46
2023/09/08 08:47:17;;;;;;;49.92;32.60;;;;;;;21.44;100.00;100963.22;5010566;28;20476;-48
2023/09/08 08:49:46;;;;;;;50.83;34.58;;;;;;;21.75;100.00;100950.06;5014033;28;20096;-46
2023/09/08 08:52:14;;;;;;;51.05;35.40;;;;;;;22.21;100.00;100950.44;5008327;28;20160;-48
2023/09/08 08:54:42;;;;;;;48.15;34.20;;;;;;;22.82;100.00;100950.56;5010999;28;20407;-44
2023/09/08 08:57:11;;;;;;;47.60;33.00;;;;;;;23.59;100.00;100957.88;5012568;28;20910;-44
2023/09/08 08:59:41;;;;;;;42.95;28.38;;;;;;;24.45;95.21;100971.31;5009583;28;20065;-46
2023/09/08 09:02:11;;;;;;;47.38;28.85;;;;;;;25.31;89.72;100977.56;5010627;28;20606;-46
2023/09/08 09:04:38;;;;;;;41.88;26.98;;;;;;;26.06;83.84;100983.00;5012752;28;20050;-44
2023/09/08 09:07:07;;;;;;;40.78;25.45;;;;;;;26.76;79.94;100974.59;5010164;28;20065;-45
2023/09/08 09:09:34;;;;;;;35.40;24.65;;;;;;;27.34;76.25;100983.00;5012002;28;20596;-47
2023/09/08 09:12:02;;;;;;;34.33;22.80;;;;;;;27.87;73.10;100967.84;5007427;28;20042;-47
2023/09/08 09:14:34;;;;;;;32.95;23.25;;;;;;;28.33;71.36;100967.03;5012435;28;20040;-47
2023/09/08 09:17:04;;;;;;;32.35;23.15;;;;;;;28.78;67.41;100980.06;5010831;28;20073;-46
2023/09/08 09:19:31;;;;;;;28.23;20.23;;;;;;;29.16;65.32;100983.44;5013429;28;20056;-49
2023/09/08 09:21:59;;;;;;;39.33;22.08;;;;;;;29.51;63.52;100975.56;5008181;28;20427;-46
2023/09/08 09:24:34;;;;;;;29.52;20.98;;;;;;;29.81;63.49;100980.41;5014180;28;20100;-49
2023/09/08 09:27:04;;;;;;;33.70;21.73;;;;;;;30.07;60.58;100972.41;5012578;28;20145;-48
2023/09/08 09:29:33;;;;;;;30.20;20.27;;;;;;;30.25;59.90;100974.47;5011384;28;20042;-47
2023/09/08 09:32:05;;;;;;;30.63;21.13;;;;;;;30.42;59.47;100967.97;5009692;28;20053;-49
2023/09/08 09:34:32;;;;;;;29.65;19.92;;;;;;;30.61;57.36;100977.34;5009070;28;20042;-46
2023/09/08 09:36:59;;;;;;;24.85;19.85;;;;;;;30.73;56.80;100980.03;5010296;28;20042;-47
2023/09/08 09:39:27;;;;;;;27.17;18.08;;;;;;;30.86;55.36;100973.34;5010500;28;20053;-46
2023/09/08 09:41:56;;;;;;;26.73;18.27;;;;;;;31.02;55.17;100970.94;5009679;28;20133;-47
2023/09/08 09:44:24;;;;;;;25.05;19.00;;;;;;;31.15;54.01;100974.41;5010341;28;20488;-46
2023/09/08 09:46:54;;;;;;;30.20;19.63;;;;;;;31.17;53.85;100974.72;5008160;28;20049;-48
2023/09/08 09:49:21;;;;;;;26.27;18.50;;;;;;;31.08;53.86;100965.38;5012797;28;20033;-48
2023/09/08 09:51:52;;;;;;;29.42;20.83;;;;;;;31.17;52.96;100969.00;5007165;28;20049;-47
2023/09/08 09:54:19;;;;;;;;;;;;;;;31.05;55.11;100977.78;5008472;28;20042;-48
2023/09/08 09:56:51;;;;;;;30.67;17.73;;;;;;;31.35;53.26;100977.50;5012041;28;19952;-47
2023/09/08 09:59:18;;;;;;;25.23;19.35;;;;;;;31.45;51.88;100978.28;5010760;28;20038;-47
2023/09/08 10:01:46;;;;;;;24.67;18.00;;;;;;;31.57;51.67;100980.13;5007085;28;20049;-48
2023/09/08 10:04:15;;;;;;;29.70;18.20;;;;;;;31.64;51.27;100979.78;5006906;28;20042;-47
2023/09/08 10:06:43;;;;;;;24.65;17.48;;;;;;;31.64;51.13;100988.38;5010059;28;20056;-47
2023/09/08 10:09:15;;;;;;;20.92;16.92;;;;;;;31.75;50.77;100991.50;5011639;28;20046;-46
2023/09/08 10:11:48;;;;;;;28.77;17.25;;;;;;;31.82;50.96;100984.63;5008879;28;20050;-47
2023/09/08 10:14:17;;;;;;;22.23;17.20;;;;;;;31.93;50.06;100979.91;5007594;28;20117;-47
2023/09/08 10:16:49;;;;;;;25.20;17.85;;;;;;;32.04;49.46;100987.22;5010121;28;20077;-45
2023/09/08 10:19:17;;;;;;;27.75;16.30;;;;;;;32.02;49.74;100986.91;5009666;28;20136;-46
2023/09/08 10:21:48;;;;;;;24.02;15.77;;;;;;;32.09;49.21;100998.00;5013154;28;20491;-46
2023/09/08 10:24:23;;;;;;;26.13;16.83;;;;;;;32.08;48.99;100996.41;5017076;28;20052;-49
2023/09/08 10:27:06;;;;;;;21.42;17.55;;;;;;;32.01;49.32;100988.97;5011332;28;20049;-47
2023/09/08 10:29:34;;;;;;;22.50;18.08;;;;;;;31.96;49.15;100992.47;5012586;28;20156;-47
2023/09/08 10:32:02;;;;;;;28.40;19.58;;;;;;;31.83;48.70;100987.00;5012167;28;20052;-45
2023/09/08 10:34:32;;;;;;;22.65;19.05;;;;;;;31.74;49.25;100989.91;5010308;28;20096;-46
2023/09/08 10:36:59;;;;;;;23.48;16.58;;;;;;;31.69;49.47;100987.69;5012182;28;20069;-46
2023/09/08 10:39:41;;;;;;;23.20;17.33;;;;;;;31.70;49.22;100982.78;5012743;28;20057;-49
2023/09/08 10:42:21;;;;;;;26.60;18.98;;;;;;;31.63;49.26;100986.81;5009437;28;20385;-49
2023/09/08 10:44:49;;;;;;;23.00;17.63;;;;;;;31.46;48.97;100979.06;5012241;28;20050;-46
2023/09/08 10:47:23;;;;;;;23.80;17.08;;;;;;;31.28;49.10;100980.72;5011812;28;20069;-47
2023/09/08 10:49:53;;;;;;;23.75;16.17;;;;;;;31.06;49.68;100991.59;5011819;28;20042;-46
2023/09/08 10:52:25;;;;;;;23.52;16.05;;;;;;;30.71;50.04;100981.78;5009448;28;20054;-47
2023/09/08 10:54:54;;;;;;;23.92;15.27;;;;;;;30.35;51.26;100982.56;5008500;28;20049;-46
2023/09/08 10:57:23;;;;;;;18.25;13.70;;;;;;;30.03;51.78;100980.31;5010734;28;20523;-46
2023/09/08 11:00:11;;;;;;;20.48;15.23;;;;;;;29.57;52.82;100974.47;5011757;28;20041;-47
2023/09/08 11:02:41;;;;;;;27.17;18.20;;;;;;;29.14;53.73;100983.13;5010644;28;20069;-46
2023/09/08 11:05:10;;;;;;;26.10;16.52;;;;;;;28.68;54.76;100981.25;5011749;28;20052;-47
2023/09/08 11:07:38;;;;;;;23.15;14.80;;;;;;;28.33;55.65;100966.22;5011633;28;20041;-47
2023/09/08 11:10:07;;;;;;;18.02;13.65;;;;;;;28.01;56.64;100960.88;5011454;28;20062;-45
2023/09/08 11:12:34;;;;;;;27.40;17.15;;;;;;;27.75;57.55;100963.75;5011609;28;20081;-47
2023/09/08 11:15:05;;;;;;;19.58;13.68;;;;;;;27.52;58.28;100963.34;5017659;28;20508;-49